Lakeview, Nevada
Current Conditions -  °F | °C
As of 4:35 PM on Friday 21 Nov 2014 (Local Time) from KCXP Reporting Station
Overcast Overcast  
Wind Chill: 50°   Ceiling: 6000
Heat Index: 50°   Visibility: 10mi
Dew Point: 19°   Wind: 6mph
Humidity: 30%   Direction: 290°WNW
Pressure: 30.05"   Gusts: NA
Location:  39.1386°N, 119.659°W
Report Text: KCXP 220035Z AUTO 29005KT 10SM OVC060 10/M07 A3005 RMK AO2
Loading
Personal Weather Stations






























Interactive Weather Map New forecast layout! Learn more

10-Day Weather Forecast

Advertisements
Track Severe Weather on mobile